Stockbridge Indian Reservati, Wisconsin
Current Conditions -  °F | °C
As of 1:53 PM on Thursday 30 Oct 2014 (Local Time) from KASX Reporting Station
Overcast Overcast  
Wind Chill: 37°   Ceiling: 2700
Heat Index: 42°   Visibility: 10mi
Dew Point: 33°   Wind: 9mph
Humidity: 70%   Direction: 300°WNW
Pressure: 30.07"   Gusts: NA
Location:  46.543°N, 90.8706°W
Report Text: KASX 301853Z AUTO 30008KT 10SM OVC027 06/01 A3007 RMK AO2 SLP192 T00560006
Loading
Personal Weather Stations






























Interactive Weather Map
Tropical Storm Tracking
New forecast layout! Learn more

10-Day Weather Forecast

Advertisements
Track Severe Weather on mobile